Westhampton Dunes, New York
Current Conditions -  °F | °C
As of 2:53 AM on Tuesday 21 Oct 2014 (Local Time) from KFOK Reporting Station
Overcast Overcast  
Wind Chill: 54°   Ceiling: 6000
Heat Index: 54°   Visibility: 10mi
Dew Point: 47°   Wind: 0mph
Humidity: 77%   Direction: NA
Pressure: 29.96"   Gusts: NA
Location:  40.8323°N, 72.6497°W
Report Text: KFOK 210653Z 00000KT 10SM BKN060 OVC075 12/08 A2996 RMK AO2 SLP145 T01220083
Loading
Personal Weather Stations






























Interactive Weather Map
Tropical Storm Tracking
New forecast layout! Learn more

10-Day Weather Forecast

Advertisements
Track Severe Weather on mobile